Time;durP1;ratioP1;P1;durP2;ratioP2;P2;SDS_P1;SDS_P2;PMS_P1;PMS_P2;Temp;Humidity;BMP_temperature;BMP_pressure;BME280_temperature;BME280_humidity;BME280_pressure;Samples;Min_cycle;Max_cycle;Signal;HPM_P1;HPM_P2
2023/03/10 00:01:56;;;;;;;24.97;13.83;;;;;;;;;;4939861;29;20102;-93
2023/03/10 00:05:22;;;;;;;;;;;;;;;;;;;;;
2023/03/10 00:08:52;;;;;;;;;;;;;;;;;;;;;
2023/03/10 00:12:37;;;;;;;25.63;13.47;;;0.90;99.90;;;;;;4954453;28;20102;-93
2023/03/10 00:39:02;;;;;;;;;;;;;;;;;;;;;
2023/03/10 00:53:09;;;;;;;;;;;;;;;;;;;;;
2023/03/10 01:00:41;;;;;;;;;;;;;;;;;;;;;
2023/03/10 01:20:25;;;;;;;;;;;;;;;;;;;;;
2023/03/10 03:20:37;;;;;;;24.33;13.10;;;0.80;99.90;;;;;;4993244;28;20050;-91
2023/03/10 03:23:23;;;;;;;24.23;11.20;;;;;;;;;;4980082;28;20109;-89
2023/03/10 03:26:23;;;;;;;22.37;10.97;;;0.80;99.90;;;;;;5008384;28;20037;-89
2023/03/10 03:29:12;;;;;;;25.83;11.80;;;0.80;99.90;;;;;;4979919;28;20554;-90
2023/03/10 03:31:57;;;;;;;23.23;11.77;;;;;;;;;;4977823;28;20077;-88
2023/03/10 03:34:44;;;;;;;22.10;12.23;;;;;;;;;;4990526;28;20134;-87
2023/03/10 03:37:29;;;;;;;25.10;12.43;;;;;;;;;;4993157;28;20398;-90
2023/03/10 03:40:16;;;;;;;25.10;12.33;;;;;;;;;;4978022;28;20498;-88
2023/03/10 03:43:04;;;;;;;23.13;11.30;;;0.80;99.90;;;;;;4994553;28;20119;-88
2023/03/10 03:45:49;;;;;;;23.87;12.57;;;;;;;;;;4983693;28;20401;-89
2023/03/10 03:48:33;;;;;;;28.70;13.40;;;;;;;;;;4991572;28;20045;-88
2023/03/10 03:51:18;;;;;;;26.33;12.57;;;;;;;;;;4967127;28;20097;-88
2023/03/10 03:54:03;;;;;;;24.03;11.70;;;;;;;;;;4979281;28;20552;-89
2023/03/10 03:56:50;;;;;;;26.03;12.20;;;;;;;;;;4979376;28;20121;-88
2023/03/10 03:59:35;;;;;;;27.37;13.27;;;;;;;;;;4992390;28;20041;-88
2023/03/10 04:02:20;;;;;;;26.17;13.70;;;;;;;;;;4978598;28;20054;-88
2023/03/10 04:05:05;;;;;;;25.27;11.93;;;;;;;;;;4990143;28;20398;-88
2023/03/10 04:07:52;;;;;;;29.10;13.07;;;;;;;;;;4981669;28;20040;-88
2023/03/10 04:10:40;;;;;;;24.80;12.20;;;;;;;;;;4993992;28;20041;-89
2023/03/10 04:13:25;;;;;;;25.70;13.73;;;;;;;;;;4966077;28;20057;-88
2023/03/10 04:16:17;;;;;;;24.37;11.57;;;;;;;;;;4995867;28;20057;-88
2023/03/10 04:19:02;;;;;;;24.80;12.50;;;;;;;;;;4979847;28;20157;-88
2023/03/10 04:21:46;;;;;;;26.60;13.67;;;;;;;;;;4986773;28;20509;-87
2023/03/10 04:24:31;;;;;;;27.57;12.87;;;;;;;;;;4992515;28;20041;-92
2023/03/10 04:27:23;;;;;;;27.40;13.03;;;;;;;;;;5014029;28;20436;-89
2023/03/10 04:30:12;;;;;;;27.73;12.87;;;0.80;99.90;;;;;;4996691;28;20498;-88
2023/03/10 04:33:00;;;;;;;29.30;13.03;;;0.80;99.90;;;;;;4985544;28;20045;-89
2023/03/10 04:35:47;;;;;;;33.77;14.27;;;;;;;;;;4991522;28;20072;-89
2023/03/10 04:38:32;;;;;;;30.43;14.10;;;;;;;;;;4966664;28;20101;-90
2023/03/10 04:41:16;;;;;;;29.53;15.33;;;;;;;;;;4965933;28;20104;-91
2023/03/10 04:44:03;;;;;;;32.97;14.67;;;0.80;99.90;;;;;;4987288;28;20041;-92
2023/03/10 04:46:47;;;;;;;34.13;15.90;;;;;;;;;;4965619;28;20088;-92
2023/03/10 04:49:32;;;;;;;29.73;14.73;;;;;;;;;;5002579;28;20099;-93
2023/03/10 04:52:16;;;;;;;36.27;16.03;;;;;;;;;;4968170;28;20044;-93
2023/03/10 04:55:01;;;;;;;32.07;14.70;;;;;;;;;;4981714;28;20085;-94
2023/03/10 04:57:45;;;;;;;35.93;17.07;;;;;;;;;;4985353;28;20446;-93
2023/03/10 05:00:30;;;;;;;41.00;17.00;;;;;;;;;;4999571;28;20044;-93
2023/03/10 05:03:16;;;;;;;36.13;17.20;;;;;;;;;;5001962;28;20122;-92
2023/03/10 05:06:00;;;;;;;44.73;18.70;;;;;;;;;;4982963;28;20541;-89
2023/03/10 05:08:45;;;;;;;44.60;19.17;;;;;;;;;;4978316;28;20405;-90
2023/03/10 05:11:31;;;;;;;45.13;18.10;;;0.70;99.90;;;;;;4992374;28;20116;-89
2023/03/10 05:14:16;;;;;;;50.73;18.80;;;;;;;;;;4992904;28;20034;-87
2023/03/10 05:17:03;;;;;;;49.97;19.33;;;0.70;99.90;;;;;;4978372;28;20100;-87
2023/03/10 05:19:47;;;;;;;38.97;17.27;;;;;;;;;;4964328;28;20060;-87
2023/03/10 05:22:32;;;;;;;50.90;19.63;;;;;;;;;;4992057;28;20052;-86
2023/03/10 05:25:16;;;;;;;44.67;18.70;;;0.80;99.90;;;;;;4978057;28;20097;-85
2023/03/10 05:28:01;;;;;;;48.33;19.17;;;;;;;;;;4992718;28;20490;-85
2023/03/10 05:30:45;;;;;;;40.73;17.30;;;;;;;;;;4992378;28;20264;-85
2023/03/10 05:33:30;;;;;;;41.60;18.67;;;;;;;;;;4992372;28;20053;-85
2023/03/10 05:36:14;;;;;;;43.80;17.80;;;;;;;;;;4977856;28;20042;-84
2023/03/10 05:38:59;;;;;;;44.53;19.17;;;;;;;;;;4992702;28;20072;-84
2023/03/10 05:41:43;;;;;;;52.40;21.47;;;;;;;;;;4991928;28;20045;-84
2023/03/10 05:44:28;;;;;;;53.47;20.13;;;;;;;;;;4979925;28;20037;-85
2023/03/10 05:47:13;;;;;;;47.00;19.80;;;;;;;;;;4996308;28;20065;-84
2023/03/10 05:49:57;;;;;;;47.20;20.07;;;;;;;;;;4977746;28;20036;-84
2023/03/10 05:52:43;;;;;;;48.83;20.13;;;0.70;99.90;;;;;;4995649;28;20049;-84
2023/03/10 05:55:28;;;;;;;47.97;20.13;;;;;;;;;;4995866;28;20096;-84
2023/03/10 05:58:13;;;;;;;55.50;21.83;;;;;;;;;;4978360;28;20082;-83
2023/03/10 06:00:57;;;;;;;58.83;22.50;;;;;;;;;;4993769;28;20113;-83
2023/03/10 06:03:43;;;;;;;60.50;23.07;;;;;;;;;;4982045;28;20097;-84
2023/03/10 06:06:28;;;;;;;53.23;22.00;;;;;;;;;;4981145;28;20486;-84
2023/03/10 06:09:12;;;;;;;64.30;24.27;;;;;;;;;;4982943;28;20080;-85
2023/03/10 06:11:58;;;;;;;70.47;23.97;;;0.70;99.90;;;;;;4981374;28;20177;-85
2023/03/10 06:14:42;;;;;;;59.60;23.60;;;;;;;;;;5001993;28;20486;-84
2023/03/10 06:17:27;;;;;;;62.80;23.87;;;;;;;;;;4976747;28;20049;-84
2023/03/10 06:20:14;;;;;;;69.17;25.53;;;0.70;99.90;;;;;;4983395;28;20419;-84
2023/03/10 06:22:59;;;;;;;69.93;25.97;;;;;;;;;;4997992;28;20541;-84
2023/03/10 06:25:43;;;;;;;60.17;24.03;;;;;;;;;;4979987;28;20089;-84
2023/03/10 06:28:31;;;;;;;57.40;23.93;;;0.70;99.90;;;;;;4997013;28;20037;-83
2023/03/10 06:31:19;;;;;;;63.07;24.10;;;0.70;99.90;;;;;;4998121;28;20042;-83
2023/03/10 06:34:04;;;;;;;48.40;21.67;;;;;;;;;;4999865;28;20046;-83
2023/03/10 06:36:49;;;;;;;65.03;24.07;;;;;;;;;;4996221;28;20097;-84
2023/03/10 06:39:33;;;;;;;49.53;20.30;;;;;;;;;;4981087;28;20084;-84
2023/03/10 06:42:19;;;;;;;58.00;22.10;;;;;;;;;;4979891;28;20485;-84
2023/03/10 06:45:04;;;;;;;52.43;23.20;;;3.20;99.90;;;;;;4980237;28;20089;-84
2023/03/10 06:47:49;;;;;;;55.13;22.20;;;;;;;;;;4979619;28;20069;-83
2023/03/10 06:50:33;;;;;;;56.93;21.53;;;0.80;99.90;;;;;;4969737;28;20518;-83
2023/03/10 06:53:19;;;;;;;54.57;21.93;;;0.80;99.90;;;;;;4996809;28;20041;-84
2023/03/10 06:56:12;;;;;;;49.50;20.67;;;0.90;99.90;;;;;;4994798;28;20037;-83
2023/03/10 06:58:57;;;;;;;46.03;20.37;;;;;;;;;;4980762;28;20041;-84
2023/03/10 07:01:42;;;;;;;47.87;20.23;;;;;;;;;;4979300;28;20101;-83
2023/03/10 07:04:26;;;;;;;42.90;18.97;;;;;;;;;;4995643;28;20398;-83
2023/03/10 07:07:12;;;;;;;41.40;18.33;;;0.90;99.90;;;;;;4994600;28;20046;-83
2023/03/10 07:09:56;;;;;;;37.43;18.57;;;;;;;;;;4979036;28;20135;-82
2023/03/10 07:12:41;;;;;;;39.73;19.00;;;;;;;;;;4995149;28;20153;-83
2023/03/10 07:15:25;;;;;;;34.80;17.13;;;;;;;;;;4999270;28;20037;-83
2023/03/10 07:18:10;;;;;;;37.37;17.13;;;;;;;;;;4994207;28;20088;-82
2023/03/10 07:20:55;;;;;;;37.83;16.37;;;0.90;99.90;;;;;;4994605;28;20033;-84
2023/03/10 07:23:40;;;;;;;38.03;17.57;;;;;;;;;;4995120;28;20041;-85
2023/03/10 07:26:24;;;;;;;34.93;15.83;;;;;;;;;;4994045;28;20041;-83
2023/03/10 07:29:09;;;;;;;34.00;15.73;;;;;;;;;;4971956;28;20466;-83
2023/03/10 07:31:54;;;;;;;35.17;15.53;;;;;;;;;;4990186;28;20050;-84
2023/03/10 07:34:39;;;;;;;33.90;15.70;;;;;;;;;;4993201;28;20037;-84
2023/03/10 07:37:23;;;;;;;33.13;16.37;;;;;;;;;;4994049;28;20050;-84
2023/03/10 07:40:08;;;;;;;30.17;13.87;;;0.90;99.90;;;;;;4983958;28;20037;-84
2023/03/10 07:42:56;;;;;;;29.90;14.67;;;;;;;;;;5011471;28;20084;-84
2023/03/10 07:45:40;;;;;;;34.00;12.67;;;;;;;;;;4994602;28;20078;-83
2023/03/10 07:48:24;;;;;;;29.23;15.43;;;1.00;99.90;;;;;;4994038;28;20077;-83
2023/03/10 07:51:11;;;;;;;28.13;14.10;;;;;;;;;;4982290;28;20084;-84
2023/03/10 07:53:56;;;;;;;29.33;15.30;;;;;;;;;;4993092;28;20037;-83
2023/03/10 07:56:40;;;;;;;29.37;15.47;;;;;;;;;;4993945;28;20060;-83
2023/03/10 07:59:25;;;;;;;30.33;14.77;;;;;;;;;;4992917;28;20109;-83
2023/03/10 08:02:11;;;;;;;31.83;15.90;;;1.00;99.90;;;;;;4978764;28;20134;-82
2023/03/10 08:04:56;;;;;;;29.87;14.53;;;;;;;;;;5001136;28;20485;-83
2023/03/10 08:07:42;;;;;;;33.57;16.33;;;;;;;;;;4981891;28;20185;-83
2023/03/10 08:10:27;;;;;;;35.57;15.13;;;;;;;;;;4992941;28;20040;-84
2023/03/10 08:13:11;;;;;;;34.20;17.07;;;;;;;;;;5000117;28;20398;-84
2023/03/10 08:15:58;;;;;;;29.63;14.87;;;1.10;99.90;;;;;;4977517;28;20053;-84
2023/03/10 08:18:43;;;;;;;29.47;16.37;;;;;;;;;;4984410;28;20057;-84
2023/03/10 08:21:28;;;;;;;33.43;16.60;;;;;;;;;;5009013;28;20126;-85
2023/03/10 08:24:12;;;;;;;33.90;16.40;;;;;;;;;;5007619;28;20045;-86
2023/03/10 08:26:57;;;;;;;30.53;15.30;;;;;;;;;;5010545;28;20144;-85
2023/03/10 08:29:42;;;;;;;25.87;15.70;;;;;;;;;;4964933;28;20129;-86
2023/03/10 08:32:26;;;;;;;30.17;15.43;;;;;;;;;;4978187;28;20040;-85
2023/03/10 08:35:11;;;;;;;34.33;15.90;;;;;;;;;;4976799;28;20133;-85
2023/03/10 08:37:58;;;;;;;27.03;14.13;;;;;;;;;;4966785;28;20074;-86
2023/03/10 08:40:45;;;;;;;29.23;15.60;;;1.10;99.90;;;;;;4998102;28;20498;-86
2023/03/10 08:43:29;;;;;;;30.23;14.63;;;;;;;;;;4977657;28;20044;-85
2023/03/10 08:46:14;;;;;;;29.83;14.77;;;;;;;;;;4977424;28;20096;-85
2023/03/10 08:48:58;;;;;;;34.80;15.37;;;;;;;;;;4992335;28;20582;-86
2023/03/10 08:51:43;;;;;;;28.13;14.43;;;;;;;;;;4978581;28;20505;-85
2023/03/10 08:54:28;;;;;;;29.93;14.13;;;;;;;;;;4980067;28;20077;-87
2023/03/10 08:57:13;;;;;;;28.63;14.97;;;;;;;;;;4977807;28;20379;-86
2023/03/10 08:59:57;;;;;;;32.67;16.80;;;;;;;;;;4992451;28;20034;-87
2023/03/10 09:02:42;;;;;;;30.20;17.43;;;;;;;;;;4992516;28;20458;-87
2023/03/10 09:05:27;;;;;;;34.37;16.57;;;1.20;99.90;;;;;;4992177;28;20506;-87
2023/03/10 09:08:11;;;;;;;33.63;17.13;;;;;;;;;;4964251;28;20041;-86
2023/03/10 09:10:56;;;;;;;36.00;16.37;;;;;;;;;;4992465;28;20041;-87
2023/03/10 09:13:41;;;;;;;37.03;18.07;;;;;;;;;;4972632;28;20045;-88
2023/03/10 09:16:30;;;;;;;37.17;16.87;;;1.20;99.90;;;;;;4977958;28;20474;-89
2023/03/10 09:19:15;;;;;;;36.00;17.97;;;;;;;;;;4981044;28;20065;-88
2023/03/10 09:22:02;;;;;;;37.77;19.63;;;;;;;;;;4996441;28;20044;-88
2023/03/10 09:24:47;;;;;;;43.80;19.57;;;;;;;;;;4981858;28;20033;-89
2023/03/10 09:27:31;;;;;;;37.03;18.20;;;;;;;;;;4982101;28;20089;-88
2023/03/10 09:30:18;;;;;;;44.87;21.40;;;;;;;;;;4995402;28;20112;-88
2023/03/10 09:33:12;;;;;;;38.73;18.30;;;1.10;99.90;;;;;;4995093;28;20092;-88
2023/03/10 09:35:56;;;;;;;46.88;21.83;;;;;;;;;;4981988;28;20089;-90
2023/03/10 09:38:41;;;;;;;38.20;20.33;;;;;;;;;;4989028;28;20130;-91
2023/03/10 09:41:56;;;;;;;40.70;19.77;;;1.10;99.90;;;;;;4985393;28;20579;-89
2023/03/10 09:44:52;;;;;;;43.57;20.77;;;1.00;99.90;;;;;;4982095;28;20506;-90
2023/03/10 09:48:34;;;;;;;43.17;20.47;;;1.10;99.90;;;;;;4996681;28;20069;-91
2023/03/10 09:51:28;;;;;;;39.93;19.87;;;1.10;99.90;;;;;;4981751;28;20057;-91
2023/03/10 09:54:39;;;;;;;36.80;17.95;;;1.10;99.90;;;;;;4995917;28;20438;-91
2023/03/10 09:57:24;;;;;;;36.47;18.43;;;1.10;99.90;;;;;;4996315;28;20081;-91
2023/03/10 10:00:17;;;;;;;40.20;19.00;;;1.10;99.90;;;;;;4967793;28;20410;-91
2023/03/10 10:03:27;;;;;;;39.70;19.00;;;1.10;99.90;;;;;;4981428;28;20048;-91
2023/03/10 10:06:25;;;;;;;43.77;20.37;;;1.10;99.90;;;;;;4981554;28;20102;-90
2023/03/10 10:09:09;;;;;;;34.43;17.97;;;;;;;;;;4981435;28;20126;-93
2023/03/10 10:11:54;;;;;;;40.87;19.57;;;;;;;;;;4981939;28;20052;-91
2023/03/10 10:14:39;;;;;;;39.20;19.90;;;;;;;;;;5002640;28;20084;-91
2023/03/10 10:17:58;;;;;;;38.73;19.57;;;1.10;99.90;;;;;;4986671;28;20328;-95
2023/03/10 10:20:43;;;;;;;38.50;18.93;;;;;;;;;;4981493;28;20088;-91
2023/03/10 10:23:49;;;;;;;36.97;17.73;;;1.10;99.90;;;;;;4995970;28;20049;-92
2023/03/10 10:26:36;;;;;;;40.97;19.67;;;1.00;99.90;;;;;;4981582;28;20049;-90
2023/03/10 10:29:33;;;;;;;40.60;19.87;;;1.10;99.90;;;;;;4979940;28;20050;-91
2023/03/10 10:32:20;;;;;;;38.33;18.83;;;;;;;;;;4995537;28;20502;-92
2023/03/10 10:35:14;;;;;;;39.43;20.33;;;1.10;99.90;;;;;;4980789;28;20041;-90
2023/03/10 10:38:05;;;;;;;37.67;19.27;;;1.10;99.90;;;;;;4980886;28;20092;-89
2023/03/10 10:41:01;;;;;;;37.10;18.97;;;1.10;99.90;;;;;;4980925;28;20041;-89
2023/03/10 10:43:47;;;;;;;36.73;18.67;;;1.20;99.90;;;;;;4994534;28;20053;-90
2023/03/10 10:46:32;;;;;;;32.90;15.77;;;;;;;;;;4980326;28;20118;-91
2023/03/10 10:49:26;;;;;;;40.00;20.80;;;1.20;99.90;;;;;;4994626;28;20107;-90
2023/03/10 10:52:21;;;;;;;35.97;18.30;;;1.20;99.90;;;;;;4994844;28;20541;-89
2023/03/10 10:55:06;;;;;;;39.87;17.83;;;;;;;;;;4980544;28;20082;-88
2023/03/10 10:57:56;;;;;;;37.07;18.30;;;1.20;99.90;;;;;;4980624;28;20056;-88
2023/03/10 11:00:54;;;;;;;33.07;17.07;;;1.10;99.90;;;;;;4995157;28;20103;-88
2023/03/10 11:03:44;;;;;;;32.50;16.83;;;1.20;99.90;;;;;;4980234;28;20100;-87
2023/03/10 11:06:34;;;;;;;34.53;18.20;;;1.10;99.90;;;;;;4979959;28;20053;-87
2023/03/10 11:09:22;;;;;;;36.73;17.80;;;1.10;99.90;;;;;;4979573;28;20632;-87
2023/03/10 11:12:07;;;;;;;34.07;17.33;;;;;;;;;;4994954;28;20449;-88
2023/03/10 11:15:28;;;;;;;38.20;17.27;;;1.10;99.90;;;;;;4971532;28;20058;-88
2023/03/10 11:18:36;;;;;;;30.40;15.53;;;1.10;99.90;;;;;;4979579;28;20242;-88
2023/03/10 11:21:33;;;;;;;31.90;17.80;;;1.10;99.90;;;;;;4978528;28;20057;-88
2023/03/10 11:24:44;;;;;;;35.00;16.97;;;1.10;99.90;;;;;;4979239;28;20531;-90
2023/03/10 11:27:48;;;;;;;33.17;16.77;;;1.10;99.90;;;;;;4986641;28;20130;-91
2023/03/10 11:30:34;;;;;;;;;;;1.10;99.90;;;;;;4986477;28;20114;-91
2023/03/10 11:33:51;;;;;;;31.20;15.70;;;1.10;99.90;;;;;;4995285;28;19917;-92
2023/03/10 11:37:08;;;;;;;37.43;16.87;;;1.10;99.90;;;;;;4946065;28;20045;-90
2023/03/10 11:40:22;;;;;;;30.77;15.77;;;1.10;99.90;;;;;;4979938;28;20533;-90
2023/03/10 11:43:20;;;;;;;34.90;18.20;;;1.10;99.90;;;;;;4978664;28;20049;-91
2023/03/10 11:46:32;;;;;;;44.00;18.77;;;1.10;99.90;;;;;;4989568;28;20190;-93
2023/03/10 11:53:49;;;;;;;;;;;;;;;;;;;;;
2023/03/10 11:56:40;;;;;;;37.33;17.53;;;1.00;99.90;;;;;;4991485;28;20589;-93
2023/03/10 11:59:30;;;;;;;32.57;16.97;;;1.00;99.90;;;;;;4989877;28;20046;-94
2023/03/10 12:02:27;;;;;;;36.87;18.80;;;;;;;;;;5009568;23;20039;-95
2023/03/10 12:16:18;;;;;;;36.07;15.87;;;0.90;99.90;;;;;;4192294;23;20252;-91
2023/03/10 12:19:23;;;;;;;39.80;17.88;;;0.80;99.90;;;;;;4921539;29;20070;-94
2023/03/10 12:22:23;;;;;;;42.77;17.93;;;0.80;99.90;;;;;;4935446;29;20116;-93
2023/03/10 12:25:34;;;;;;;34.87;17.20;;;0.80;99.90;;;;;;4938435;29;20077;-92
2023/03/10 12:28:42;;;;;;;38.63;17.63;;;0.90;99.90;;;;;;4932286;29;20451;-93
2023/03/10 12:31:36;;;;;;;36.60;17.13;;;0.90;99.90;;;;;;4937955;29;20054;-95
2023/03/10 12:34:26;;;;;;;38.63;17.40;;;;;;;;;;4948599;29;20047;-92
2023/03/10 12:37:11;;;;;;;37.20;17.00;;;1.00;99.90;;;;;;4935216;29;20122;-92
2023/03/10 12:39:56;;;;;;;35.27;17.23;;;;;;;;;;4942605;29;20396;-91
2023/03/10 12:42:44;;;;;;;36.13;16.60;;;;;;;;;;4932215;29;20054;-90
2023/03/10 12:45:37;;;;;;;40.10;17.73;;;1.00;99.90;;;;;;4937392;29;20099;-88
2023/03/10 12:48:22;;;;;;;33.80;16.83;;;1.00;99.90;;;;;;4934450;29;20473;-88
2023/03/10 12:51:18;;;;;;;34.00;14.53;;;1.00;99.90;;;;;;4935538;29;20483;-88
2023/03/10 12:54:37;;;;;;;33.20;15.87;;;-0.80;99.90;;;;;;4934091;29;20062;-87
2023/03/10 12:57:47;;;;;;;29.00;14.20;;;1.00;99.90;;;;;;4905721;29;20041;-89
2023/03/10 13:00:49;;;;;;;34.00;15.80;;;1.10;99.90;;;;;;4935033;29;20452;-86
2023/03/10 13:03:40;;;;;;;29.43;14.23;;;1.00;99.90;;;;;;4926317;29;20054;-86
2023/03/10 13:06:37;;;;;;;33.80;15.13;;;1.10;99.90;;;;;;4936046;29;20444;-87
2023/03/10 13:09:29;;;;;;;38.20;15.87;;;1.20;99.90;;;;;;4936026;29;20038;-89
2023/03/10 13:12:41;;;;;;;32.13;15.50;;;1.20;99.90;;;;;;4933709;29;20043;-89
2023/03/10 13:15:34;;;;;;;28.50;15.80;;;1.20;99.90;;;;;;4946224;29;20046;-90
2023/03/10 13:18:24;;;;;;;31.10;15.90;;;1.30;99.90;;;;;;4941390;29;20103;-90
2023/03/10 13:21:49;;;;;;;30.20;14.97;;;1.30;99.90;;;;;;4946505;29;20502;-92
2023/03/10 13:24:37;;;;;;;25.70;12.93;;;1.20;99.90;;;;;;4939647;29;20058;-87
2023/03/10 13:27:30;;;;;;;25.60;13.93;;;1.20;99.90;;;;;;4936431;29;20027;-90
2023/03/10 13:30:21;;;;;;;24.20;13.63;;;1.20;99.90;;;;;;4933904;29;20090;-94
2023/03/10 13:33:50;;;;;;;;;;;;;;;;;;;;;
2023/03/10 13:36:37;;;;;;;26.33;13.53;;;1.20;99.90;;;;;;4921309;29;20042;-94
2023/03/10 13:39:26;;;;;;;28.57;13.73;;;1.20;99.90;;;;;;4935839;29;20035;-87
2023/03/10 13:42:21;;;;;;;26.80;14.57;;;1.20;99.90;;;;;;4932873;29;20089;-87
2023/03/10 13:45:19;;;;;;;26.20;13.83;;;1.20;99.90;;;;;;4937757;29;20115;-89
2023/03/10 13:48:04;;;;;;;27.80;14.17;;;;;;;;;;4934085;29;20493;-88
2023/03/10 13:51:20;;;;;;;29.17;14.60;;;1.20;99.90;;;;;;4933436;29;20091;-89
2023/03/10 13:54:24;;;;;;;18.10;11.37;;;1.20;99.90;;;;;;4934631;29;20042;-89
2023/03/10 13:57:29;;;;;;;27.83;15.65;;;1.20;99.90;;;;;;4939152;29;20060;-88
2023/03/10 14:00:25;;;;;;;31.60;15.13;;;1.20;99.90;;;;;;4933313;29;20039;-91
2023/03/10 14:03:14;;;;;;;35.33;18.90;;;;;;;;;;4932289;29;20046;-90
2023/03/10 14:05:59;;;;;;;33.57;17.50;;;;;;;;;;4937332;29;20423;-88
2023/03/10 14:08:43;;;;;;;45.30;21.77;;;;;;;;;;4937324;29;20395;-91
2023/03/10 14:11:48;;;;;;;33.00;17.20;;;1.10;99.90;;;;;;4937758;29;20063;-91
2023/03/10 14:14:37;;;;;;;33.50;15.97;;;1.20;99.90;;;;;;4953090;29;20078;-90
2023/03/10 14:18:06;;;;;;;27.53;15.03;;;1.20;99.90;;;;;;4948391;29;20105;-92
2023/03/10 14:20:50;;;;;;;31.90;16.07;;;;;;;;;;4936496;29;20086;-86
2023/03/10 14:23:45;;;;;;;28.57;13.70;;;1.20;99.90;;;;;;4937531;29;20575;-93
2023/03/10 14:26:32;;;;;;;30.37;15.83;;;;;;;;;;4943521;29;20050;-88
2023/03/10 14:29:17;;;;;;;28.40;13.90;;;;;;;;;;4941804;29;20510;-86
2023/03/10 14:32:11;;;;;;;29.73;14.07;;;1.20;99.90;;;;;;4942531;29;20062;-88
2023/03/10 14:34:56;;;;;;;24.52;13.15;;;;;;;;;;4930345;29;20091;-85
2023/03/10 14:37:41;;;;;;;29.00;14.90;;;;;;;;;;4935344;29;20039;-88
2023/03/10 14:40:25;;;;;;;29.70;14.13;;;;;;;;;;4930850;29;20032;-87
2023/03/10 14:43:17;;;;;;;29.67;13.87;;;1.10;99.90;;;;;;4945960;29;20043;-85
2023/03/10 14:46:03;;;;;;;32.87;16.70;;;;;;;;;;4925816;29;20074;-86
2023/03/10 14:48:48;;;;;;;30.07;15.50;;;;;;;;;;4935990;29;20046;-86
2023/03/10 14:51:33;;;;;;;33.30;15.83;;;;;;;;;;4936546;29;20047;-88
2023/03/10 14:54:22;;;;;;;41.03;18.13;;;1.10;99.90;;;;;;4936270;29;20066;-86
2023/03/10 14:57:07;;;;;;;40.97;19.63;;;;;;;;;;4936553;29;20465;-86
2023/03/10 14:59:52;;;;;;;36.20;16.37;;;1.20;99.90;;;;;;4935921;29;20081;-86
2023/03/10 15:02:37;;;;;;;39.90;20.10;;;;;;;;;;4937007;29;20047;-86
2023/03/10 15:05:26;;;;;;;33.80;18.00;;;1.20;99.90;;;;;;4936232;29;20159;-86
2023/03/10 15:08:11;;;;;;;36.60;17.20;;;;;;;;;;4936021;29;20042;-85
2023/03/10 15:10:56;;;;;;;33.53;17.63;;;;;;;;;;4935643;29;20163;-84
2023/03/10 15:13:41;;;;;;;38.70;20.20;;;;;;;;;;4936055;29;20066;-84
2023/03/10 15:16:25;;;;;;;36.13;19.37;;;;;;;;;;4935786;29;20111;-84
2023/03/10 15:19:22;;;;;;;42.90;18.53;;;1.20;99.90;;;;;;4935346;29;20099;-84
2023/03/10 15:22:07;;;;;;;42.93;19.77;;;;;;;;;;4935167;29;20058;-84
2023/03/10 15:24:51;;;;;;;38.07;19.03;;;;;;;;;;4935324;29;20078;-84
2023/03/10 15:27:36;;;;;;;44.47;23.00;;;;;;;;;;4935727;29;20046;-84
2023/03/10 15:30:26;;;;;;;36.63;19.63;;;1.10;99.90;;;;;;4936759;29;20035;-83
2023/03/10 15:33:11;;;;;;;29.93;15.57;;;;;;;;;;4935069;29;20078;-84
2023/03/10 15:35:56;;;;;;;34.60;16.27;;;;;;;;;;4935101;29;20070;-84
2023/03/10 15:38:40;;;;;;;41.20;18.80;;;;;;;;;;4936619;29;20074;-84
2023/03/10 15:41:25;;;;;;;35.53;16.70;;;;;;;;;;4935956;29;20102;-85
2023/03/10 15:44:10;;;;;;;34.20;15.97;;;;;;;;;;4935921;29;20150;-83
2023/03/10 15:46:55;;;;;;;34.30;15.40;;;;;;;;;;4934125;29;20035;-83
2023/03/10 15:49:39;;;;;;;30.90;13.70;;;;;;;;;;4933736;29;20038;-84
2023/03/10 15:52:24;;;;;;;25.23;13.30;;;;;;;;;;4934910;29;20539;-84
2023/03/10 15:55:08;;;;;;;24.47;12.60;;;1.10;99.90;;;;;;4935483;29;20483;-84
2023/03/10 15:57:53;;;;;;;37.03;18.07;;;;;;;;;;4936141;29;20070;-85
2023/03/10 16:00:38;;;;;;;34.97;16.67;;;;;;;;;;4934946;29;20127;-84
2023/03/10 16:03:23;;;;;;;34.93;15.27;;;;;;;;;;4935417;29;20511;-84
2023/03/10 16:06:08;;;;;;;32.40;14.93;;;;;;;;;;4935666;29;20132;-84
2023/03/10 16:08:54;;;;;;;28.90;13.33;;;0.90;99.90;;;;;;4947903;29;20042;-85
2023/03/10 16:11:39;;;;;;;36.87;15.27;;;;;;;;;;4937106;29;20050;-83
2023/03/10 16:14:27;;;;;;;26.97;12.30;;;0.70;99.90;;;;;;4936522;29;20082;-84
2023/03/10 16:17:12;;;;;;;28.53;12.83;;;;;;;;;;4941006;29;20043;-84
2023/03/10 16:20:00;;;;;;;30.40;13.20;;;;;;;;;;4934775;29;20103;-85
2023/03/10 16:22:45;;;;;;;28.03;12.53;;;;;;;;;;4937429;29;20059;-84
2023/03/10 16:25:29;;;;;;;31.93;13.07;;;;;;;;;;4934766;29;20407;-85
2023/03/10 16:28:14;;;;;;;32.60;12.40;;;;;;;;;;4933740;29;20039;-84
2023/03/10 16:30:59;;;;;;;26.83;12.73;;;;;;;;;;4934059;29;20500;-86
2023/03/10 16:33:45;;;;;;;28.03;12.67;;;0.70;99.90;;;;;;4932415;29;20070;-83
2023/03/10 16:36:30;;;;;;;25.57;10.43;;;;;;;;;;4934667;29;20090;-84
2023/03/10 16:39:15;;;;;;;19.97;9.80;;;;;;;;;;4933290;29;20063;-85
2023/03/10 16:41:59;;;;;;;17.77;8.80;;;;;;;;;;4935054;29;20050;-85
2023/03/10 16:44:44;;;;;;;25.90;9.53;;;;;;;;;;4920924;29;20126;-84
2023/03/10 16:47:28;;;;;;;23.33;9.63;;;;;;;;;;4932557;29;20411;-85
2023/03/10 16:50:13;;;;;;;18.33;8.37;;;;;;;;;;4934369;29;20046;-85
2023/03/10 16:52:58;;;;;;;26.30;9.00;;;;;;;;;;4934798;29;20094;-85
2023/03/10 16:55:42;;;;;;;22.07;7.80;;;;;;;;;;4935136;29;20039;-85
2023/03/10 16:58:27;;;;;;;19.10;8.13;;;;;;;;;;4938220;29;20043;-85
2023/03/10 17:01:12;;;;;;;14.73;6.87;;;;;;;;;;4932824;29;20099;-85
2023/03/10 17:03:56;;;;;;;16.83;7.13;;;;;;;;;;4933834;29;20499;-85
2023/03/10 17:06:41;;;;;;;20.73;8.67;;;;;;;;;;4920555;29;20083;-85
2023/03/10 17:09:26;;;;;;;23.73;8.13;;;;;;;;;;4933130;29;20046;-86
2023/03/10 17:12:11;;;;;;;18.00;8.17;;;;;;;;;;4933019;29;20592;-86
2023/03/10 17:14:56;;;;;;;18.13;8.20;;;;;;;;;;4922761;29;20046;-86
2023/03/10 17:17:41;;;;;;;24.67;9.27;;;;;;;;;;4933532;29;20543;-86
2023/03/10 17:20:26;;;;;;;23.10;10.10;;;;;;;;;;4950165;28;20847;-86
2023/03/10 17:23:10;;;;;;;22.83;9.97;;;;;;;;;;4948783;29;20046;-88
2023/03/10 17:25:55;;;;;;;23.00;9.30;;;;;;;;;;4937226;29;20492;-90
2023/03/10 17:28:42;;;;;;;19.70;8.83;;;0.60;99.90;;;;;;4937316;29;20042;-87
2023/03/10 17:31:27;;;;;;;23.93;7.60;;;0.60;99.90;;;;;;4931272;29;20122;-87
2023/03/10 17:34:13;;;;;;;20.37;8.37;;;0.50;99.90;;;;;;4926865;29;20043;-87
2023/03/10 17:36:57;;;;;;;23.70;9.70;;;;;;;;;;4921450;29;20400;-88
2023/03/10 17:39:42;;;;;;;18.30;9.37;;;;;;;;;;4935577;29;20091;-88
2023/03/10 17:42:32;;;;;;;21.73;8.83;;;0.50;99.90;;;;;;4927859;29;20090;-89
2023/03/10 17:45:16;;;;;;;12.23;6.57;;;;;;;;;;4921833;29;20042;-89
2023/03/10 17:48:01;;;;;;;13.27;5.93;;;;;;;;;;4937568;29;20047;-88
2023/03/10 17:50:48;;;;;;;15.10;5.33;;;0.50;99.90;;;;;;4937154;29;20148;-88
2023/03/10 17:53:36;;;;;;;14.93;5.23;;;;;;;;;;4934936;29;20491;-87
2023/03/10 17:56:21;;;;;;;11.30;5.27;;;;;;;;;;4922337;29;20067;-88
2023/03/10 17:59:05;;;;;;;9.37;4.47;;;;;;;;;;4937292;29;20038;-88
2023/03/10 18:01:50;;;;;;;10.00;4.10;;;;;;;;;;4940043;29;20067;-89
2023/03/10 18:04:35;;;;;;;7.33;4.00;;;;;;;;;;4929537;29;20097;-88
2023/03/10 18:07:20;;;;;;;11.60;4.70;;;;;;;;;;4954561;28;20042;-88
2023/03/10 18:10:04;;;;;;;11.43;5.70;;;;;;;;;;4941582;29;20039;-87
2023/03/10 18:12:49;;;;;;;12.57;4.20;;;;;;;;;;4945523;29;20098;-87
2023/03/10 18:15:34;;;;;;;9.33;3.83;;;;;;;;;;4938605;29;20492;-86
2023/03/10 18:18:19;;;;;;;10.23;4.30;;;;;;;;;;4943599;29;20047;-85
2023/03/10 18:21:07;;;;;;;9.50;4.63;;;0.40;99.90;;;;;;4926520;29;20054;-86
2023/03/10 18:23:54;;;;;;;14.73;5.07;;;0.70;99.90;;;;;;4921974;29;20456;-87
2023/03/10 18:26:43;;;;;;;13.87;5.27;;;0.50;99.90;;;;;;4933904;29;20046;-87
2023/03/10 18:29:28;;;;;;;13.80;5.10;;;;;;;;;;4918723;29;20047;-89
2023/03/10 18:32:13;;;;;;;13.90;6.03;;;;;;;;;;4921390;29;20401;-87
2023/03/10 18:34:58;;;;;;;15.70;5.63;;;;;;;;;;4915320;29;20039;-87
2023/03/10 18:37:42;;;;;;;14.73;6.23;;;;;;;;;;4937867;29;20087;-86
2023/03/10 18:40:27;;;;;;;14.23;6.53;;;;;;;;;;4921490;29;20047;-87
2023/03/10 18:43:12;;;;;;;17.33;6.63;;;;;;;;;;4923787;29;20123;-86
2023/03/10 18:45:56;;;;;;;20.73;7.80;;;;;;;;;;4905497;29;20092;-88
2023/03/10 18:48:41;;;;;;;22.67;8.40;;;;;;;;;;4917020;29;20056;-87
2023/03/10 18:51:26;;;;;;;19.23;7.87;;;0.60;99.90;;;;;;4916386;29;20043;-86
2023/03/10 18:54:11;;;;;;;18.80;7.27;;;;;;;;;;4916878;29;20083;-86
2023/03/10 18:57:00;;;;;;;18.27;7.60;;;0.60;99.90;;;;;;4917623;29;20039;-86
2023/03/10 18:59:45;;;;;;;17.10;7.30;;;;;;;;;;4907910;29;20177;-86